Time;durP1;ratioP1;P1;durP2;ratioP2;P2;SDS_P1;SDS_P2;PMS_P1;PMS_P2;Temp;Humidity;BMP_temperature;BMP_pressure;BME280_temperature;BME280_humidity;BME280_pressure;Samples;Min_cycle;Max_cycle;Signal;HPM_P1;HPM_P2
2022/12/19 00:01:18;;;;;;;41.67;18.55;;;1.60;99.90;;;;;;5054441;28;20494;-73
2022/12/19 00:03:45;;;;;;;39.92;17.65;;;1.30;99.90;;;;;;5054317;28;20048;-73
2022/12/19 00:06:11;;;;;;;41.58;20.20;;;1.70;99.90;;;;;;5054083;28;20395;-73
2022/12/19 00:08:37;;;;;;;36.85;19.02;;;1.30;99.90;;;;;;5054149;28;20495;-74
2022/12/19 00:11:03;;;;;;;43.45;19.55;;;1.80;99.90;;;;;;5054012;28;20056;-73
2022/12/19 00:13:30;;;;;;;45.00;18.50;;;1.30;99.90;;;;;;5054082;28;20052;-73
2022/12/19 00:16:05;;;;;;;40.63;18.50;;;1.40;99.90;;;;;;5037357;28;20053;-74
2022/12/19 00:18:30;;;;;;;46.42;18.98;;;1.30;99.90;;;;;;5054185;28;20048;-73
2022/12/19 00:20:58;;;;;;;44.60;19.88;;;2.40;99.90;;;;;;5020787;28;20049;-74
2022/12/19 00:23:26;;;;;;;44.25;19.58;;;1.70;99.90;;;;;;5037483;28;20391;-74
2022/12/19 00:25:51;;;;;;;43.83;19.52;;;1.40;99.90;;;;;;5053816;28;20087;-72
2022/12/19 00:28:17;;;;;;;43.15;19.05;;;1.80;99.90;;;;;;5037293;28;20080;-74
2022/12/19 00:30:43;;;;;;;42.17;19.08;;;1.50;99.90;;;;;;5020750;28;20052;-73
2022/12/19 00:33:09;;;;;;;43.95;19.25;;;2.10;99.90;;;;;;5037049;28;20091;-74
2022/12/19 00:35:34;;;;;;;41.83;20.45;;;1.50;99.90;;;;;;5036926;28;20055;-73
2022/12/19 00:38:01;;;;;;;47.22;20.77;;;1.90;99.90;;;;;;5020591;28;20040;-74
2022/12/19 00:40:26;;;;;;;46.42;19.40;;;1.70;99.90;;;;;;5037212;28;20053;-75
2022/12/19 00:42:52;;;;;;;43.13;18.40;;;1.50;99.90;;;;;;5053432;28;20041;-74
2022/12/19 00:45:18;;;;;;;44.00;19.40;;;1.50;99.90;;;;;;5020494;28;20135;-75
2022/12/19 00:47:44;;;;;;;44.65;19.00;;;1.50;99.90;;;;;;5036141;28;20041;-74
2022/12/19 00:50:09;;;;;;;45.72;19.27;;;1.60;99.90;;;;;;5036514;28;20099;-75
2022/12/19 00:52:35;;;;;;;45.13;20.38;;;1.60;99.90;;;;;;5053348;28;20041;-74
2022/12/19 00:55:01;;;;;;;45.67;20.20;;;1.60;99.90;;;;;;5036732;28;20093;-74
2022/12/19 00:57:26;;;;;;;44.13;18.17;;;1.60;99.90;;;;;;5053194;28;20403;-76
2022/12/19 00:59:52;;;;;;;41.70;18.52;;;1.60;99.90;;;;;;5036807;28;20095;-75
2022/12/19 01:02:18;;;;;;;48.65;20.20;;;1.70;99.90;;;;;;5036358;28;20040;-75
2022/12/19 01:04:43;;;;;;;42.50;20.13;;;1.70;99.90;;;;;;5053400;28;20052;-76
2022/12/19 01:07:09;;;;;;;45.60;19.85;;;1.70;99.90;;;;;;5053373;28;20483;-76
2022/12/19 01:09:35;;;;;;;43.67;19.83;;;1.70;99.90;;;;;;5053238;28;20487;-74
2022/12/19 01:14:47;;;;;;;42.38;19.42;;;1.60;99.90;;;;;;5053161;28;20399;-74
2022/12/19 01:17:13;;;;;;;38.97;17.95;;;2.20;99.90;;;;;;5036184;28;20049;-75
2022/12/19 01:19:39;;;;;;;45.30;19.92;;;1.70;99.90;;;;;;5036494;28;20048;-76
2022/12/19 01:22:04;;;;;;;43.03;19.00;;;1.60;99.90;;;;;;5036316;28;20103;-74
2022/12/19 01:24:30;;;;;;;42.13;20.58;;;1.70;99.90;;;;;;5052719;28;20045;-75
2022/12/19 01:26:56;;;;;;;45.85;20.00;;;1.70;99.90;;;;;;5036496;28;20143;-74
2022/12/19 01:29:21;;;;;;;45.58;19.75;;;2.20;99.90;;;;;;5035966;28;20503;-74
2022/12/19 01:31:47;;;;;;;46.38;19.20;;;1.70;99.90;;;;;;5035903;28;20123;-74
2022/12/19 01:34:13;;;;;;;44.90;20.35;;;1.70;99.90;;;;;;5035975;28;20059;-75
2022/12/19 01:36:38;;;;;;;43.90;18.23;;;1.80;99.90;;;;;;5036312;28;20083;-75
2022/12/19 01:39:04;;;;;;;51.13;21.45;;;1.80;99.90;;;;;;5035741;28;20438;-74
2022/12/19 01:41:30;;;;;;;44.05;19.17;;;1.80;99.90;;;;;;5052727;28;20053;-75
2022/12/19 01:44:04;;;;;;;47.70;20.55;;;1.80;99.90;;;;;;5019644;28;20711;-75
2022/12/19 01:46:42;;;;;;;45.72;18.98;;;1.90;99.90;;;;;;5052889;28;20129;-75
2022/12/19 01:49:23;;;;;;;44.05;19.88;;;1.90;99.90;;;;;;5052455;28;20075;-75
2022/12/19 01:51:50;;;;;;;43.40;18.27;;;1.80;99.90;;;;;;5035953;28;20052;-75
2022/12/19 01:54:24;;;;;;;47.28;20.50;;;1.90;99.90;;;;;;5019204;28;20094;-76
2022/12/19 01:56:52;;;;;;;37.00;17.05;;;2.70;99.90;;;;;;5052618;28;20140;-76
2022/12/19 01:59:28;;;;;;;48.83;19.67;;;1.90;99.90;;;;;;5051809;28;20045;-76
2022/12/19 02:02:00;;;;;;;47.33;20.75;;;2.00;99.90;;;;;;5035592;28;20506;-76
2022/12/19 02:04:27;;;;;;;42.90;19.75;;;2.00;99.90;;;;;;5051935;28;20056;-75
2022/12/19 02:06:56;;;;;;;45.25;19.27;;;2.20;99.90;;;;;;5019390;28;20091;-75
2022/12/19 02:09:21;;;;;;;41.30;19.20;;;2.00;99.90;;;;;;5019175;28;20048;-75
2022/12/19 02:11:47;;;;;;;44.45;19.63;;;2.00;99.90;;;;;;5035688;28;20045;-76
2022/12/19 02:14:13;;;;;;;51.33;20.80;;;2.00;99.90;;;;;;5019109;28;20456;-74
2022/12/19 02:17:06;;;;;;;51.42;21.35;;;2.70;99.90;;;;;;5035583;28;20063;-75
2022/12/19 02:20:04;;;;;;;45.70;19.70;;;2.10;99.90;;;;;;5051852;28;20062;-75
2022/12/19 02:22:57;;;;;;;46.47;20.80;;;2.10;99.90;;;;;;4991370;28;20049;-74
2022/12/19 02:25:54;;;;;;;42.85;17.98;;;1.70;99.90;;;;;;5035179;28;20053;-75
2022/12/19 02:28:32;;;;;;;46.55;18.77;;;2.20;99.90;;;;;;5051765;28;20132;-76
2022/12/19 02:31:31;;;;;;;47.17;20.65;;;2.20;99.90;;;;;;5035571;28;20068;-76
2022/12/19 02:34:05;;;;;;;45.58;19.58;;;2.20;99.90;;;;;;5035536;28;20055;-76
2022/12/19 02:36:47;;;;;;;50.60;21.13;;;2.30;99.90;;;;;;5051899;28;20406;-77
2022/12/19 02:39:40;;;;;;;51.03;20.60;;;3.00;99.90;;;;;;5051825;28;20084;-76
2022/12/19 02:42:11;;;;;;;45.65;19.38;;;2.30;99.90;;;;;;5051697;28;20053;-74
2022/12/19 02:44:41;;;;;;;54.65;21.13;;;3.10;99.90;;;;;;5051794;28;20049;-74
2022/12/19 02:47:08;;;;;;;47.17;19.67;;;2.30;99.90;;;;;;5051764;28;20044;-74
2022/12/19 02:49:36;;;;;;;49.15;19.23;;;2.30;99.90;;;;;;5034354;28;20135;-74
2022/12/19 02:52:31;;;;;;;51.58;21.42;;;3.20;99.90;;;;;;5018330;28;20386;-75
2022/12/19 02:55:04;;;;;;;49.97;20.77;;;2.40;99.90;;;;;;5017872;28;20061;-75
2022/12/19 02:57:37;;;;;;;56.72;21.98;;;2.30;99.90;;;;;;5034820;28;20049;-74
2022/12/19 03:00:03;;;;;;;53.58;21.10;;;2.20;99.90;;;;;;5035120;28;20040;-75
2022/12/19 03:02:47;;;;;;;55.75;22.00;;;2.20;99.90;;;;;;5034592;28;20068;-75
2022/12/19 03:05:22;;;;;;;57.95;21.23;;;2.30;99.90;;;;;;5034818;28;20498;-76
2022/12/19 03:07:50;;;;;;;58.20;22.85;;;2.20;99.90;;;;;;5034902;28;20041;-74
2022/12/19 03:10:44;;;;;;;63.13;23.98;;;2.20;99.90;;;;;;5052819;28;20057;-74
2022/12/19 03:13:31;;;;;;;64.80;24.33;;;2.30;99.90;;;;;;5038642;28;20088;-73
2022/12/19 03:15:58;;;;;;;60.17;22.38;;;2.40;99.90;;;;;;5038730;28;20084;-75
2022/12/19 03:18:24;;;;;;;63.17;24.05;;;2.50;99.90;;;;;;5038315;28;20049;-75
2022/12/19 03:21:10;;;;;;;65.82;23.77;;;2.30;99.90;;;;;;5005890;28;20057;-75
2022/12/19 03:23:37;;;;;;;67.93;22.98;;;2.30;99.90;;;;;;5038386;28;20053;-74
2022/12/19 03:26:13;;;;;;;64.15;25.02;;;2.80;99.90;;;;;;5021976;28;20051;-73
2022/12/19 03:28:49;;;;;;;65.65;23.85;;;2.20;99.90;;;;;;5038025;28;20051;-77
2022/12/19 03:31:18;;;;;;;70.05;24.63;;;2.20;99.90;;;;;;5038510;28;20087;-75
2022/12/19 03:33:45;;;;;;;65.78;24.92;;;2.30;99.90;;;;;;5038487;28;20053;-75
2022/12/19 03:36:18;;;;;;;75.05;27.95;;;2.30;99.90;;;;;;5021804;28;20048;-76
2022/12/19 03:38:46;;;;;;;63.22;21.85;;;3.30;99.90;;;;;;5021850;28;20084;-76
2022/12/19 03:41:14;;;;;;;77.47;27.10;;;2.30;99.90;;;;;;5021951;28;20060;-76
2022/12/19 03:43:43;;;;;;;76.85;26.45;;;2.20;99.90;;;;;;5021579;28;20514;-75
2022/12/19 03:46:23;;;;;;;73.25;24.50;;;3.30;99.90;;;;;;5038252;28;20064;-75
2022/12/19 03:48:53;;;;;;;88.57;26.58;;;2.40;99.90;;;;;;5038124;28;20049;-76
2022/12/19 03:51:50;;;;;;;82.80;27.60;;;2.50;99.90;;;;;;5034843;28;20063;-76
2022/12/19 03:54:20;;;;;;;75.28;23.88;;;2.40;99.90;;;;;;5054429;28;20415;-77
2022/12/19 03:57:11;;;;;;;77.30;28.27;;;2.40;99.90;;;;;;5054738;28;20450;-76
2022/12/19 03:59:51;;;;;;;73.28;25.83;;;2.60;99.90;;;;;;5038001;28;20506;-77
2022/12/19 04:02:19;;;;;;;86.07;27.77;;;3.30;99.90;;;;;;5054594;28;20099;-76
2022/12/19 04:04:49;;;;;;;81.70;26.40;;;2.60;99.90;;;;;;5037754;28;20394;-77
2022/12/19 04:07:17;;;;;;;83.32;26.85;;;3.00;99.90;;;;;;5037728;28;20037;-76
2022/12/19 04:09:44;;;;;;;76.63;27.48;;;2.60;99.90;;;;;;5037638;28;20048;-76
2022/12/19 04:12:16;;;;;;;79.57;28.25;;;3.00;99.90;;;;;;5054089;28;20131;-77
2022/12/19 04:14:42;;;;;;;;;;;2.70;99.90;;;;;;5037927;28;20055;-77
2022/12/19 04:17:33;;;;;;;81.78;26.55;;;2.70;99.90;;;;;;5037586;28;19920;-77
2022/12/19 04:20:03;;;;;;;90.55;29.08;;;3.70;99.90;;;;;;5037753;28;20055;-75
2022/12/19 04:22:58;;;;;;;94.68;29.55;;;3.00;99.90;;;;;;5052666;28;20415;-74
2022/12/19 04:25:31;;;;;;;80.55;24.77;;;2.80;99.90;;;;;;5019932;28;20060;-75
2022/12/19 04:28:03;;;;;;;91.05;28.05;;;2.90;99.90;;;;;;5054007;28;20124;-77
2022/12/19 04:30:29;;;;;;;91.82;28.55;;;3.20;99.90;;;;;;5037193;28;20139;-76
2022/12/19 04:32:56;;;;;;;84.38;25.88;;;2.80;99.90;;;;;;5037196;28;20139;-78
2022/12/19 04:35:21;;;;;;;79.43;27.05;;;3.30;99.90;;;;;;5037680;28;20045;-77
2022/12/19 04:37:47;;;;;;;90.93;29.17;;;3.00;99.90;;;;;;5051057;28;20596;-77
2022/12/19 04:40:13;;;;;;;89.20;27.65;;;2.60;99.90;;;;;;5051634;28;20053;-77
2022/12/19 04:42:39;;;;;;;85.43;29.83;;;3.00;99.90;;;;;;5035748;28;20053;-78
2022/12/19 04:45:05;;;;;;;83.10;27.63;;;3.00;99.90;;;;;;4672283;28;10000465;-80
2022/12/19 04:47:31;;;;;;;79.95;26.95;;;3.10;99.90;;;;;;5051580;28;20053;-79
2022/12/19 04:49:56;;;;;;;93.57;29.02;;;3.10;99.90;;;;;;5034313;28;20084;-78
2022/12/19 04:52:22;;;;;;;88.28;29.45;;;3.10;99.90;;;;;;5051365;28;20099;-77
2022/12/19 04:54:48;;;;;;;80.45;28.70;;;3.30;99.90;;;;;;5051196;28;20098;-76
2022/12/19 04:57:13;;;;;;;72.18;25.13;;;3.50;99.90;;;;;;5018566;28;20544;-77
2022/12/19 04:59:39;;;;;;;86.88;27.95;;;3.10;99.90;;;;;;5051069;28;20047;-77
2022/12/19 05:02:05;;;;;;;87.78;28.40;;;3.10;99.90;;;;;;5050791;28;20055;-77
2022/12/19 05:04:31;;;;;;;90.18;29.65;;;3.20;99.90;;;;;;5050584;28;20495;-78
2022/12/19 05:06:56;;;;;;;73.22;26.83;;;4.20;99.90;;;;;;5051051;28;20041;-77
2022/12/19 05:09:22;;;;;;;73.30;24.50;;;3.20;99.90;;;;;;5018142;28;20049;-78
2022/12/19 05:11:48;;;;;;;81.35;27.05;;;3.90;99.90;;;;;;5024892;28;20694;-77
2022/12/19 05:14:14;;;;;;;79.82;27.00;;;3.30;99.90;;;;;;5014235;28;20514;-77
2022/12/19 05:16:40;;;;;;;80.97;28.70;;;4.10;99.90;;;;;;4998182;28;20148;-75
2022/12/19 05:19:06;;;;;;;89.38;28.58;;;3.40;99.90;;;;;;5014211;28;20053;-76
2022/12/19 05:21:31;;;;;;;69.10;25.17;;;3.30;99.90;;;;;;4998359;28;20049;-76
2022/12/19 05:23:57;;;;;;;78.55;26.52;;;3.40;99.90;;;;;;5031006;28;20045;-77
2022/12/19 05:26:23;;;;;;;79.85;27.25;;;3.50;99.90;;;;;;5014101;28;20052;-78
2022/12/19 05:28:49;;;;;;;86.90;27.13;;;3.40;99.90;;;;;;5014096;28;20053;-76
2022/12/19 05:31:18;;;;;;;84.00;27.50;;;3.40;99.90;;;;;;4997817;28;20062;-76
2022/12/19 05:33:44;;;;;;;86.47;29.00;;;4.60;99.90;;;;;;5030409;28;20045;-76
2022/12/19 05:36:13;;;;;;;84.13;28.98;;;3.60;99.90;;;;;;5030457;28;20389;-77
2022/12/19 05:38:39;;;;;;;80.75;27.85;;;3.60;99.90;;;;;;5014048;28;20049;-76
2022/12/19 05:41:10;;;;;;;83.97;27.85;;;4.30;99.90;;;;;;5030756;28;20049;-77
2022/12/19 05:43:36;;;;;;;88.75;29.20;;;4.40;99.90;;;;;;5031553;28;20042;-77
2022/12/19 05:46:03;;;;;;;75.40;25.17;;;3.50;99.90;;;;;;5032831;28;20038;-77
2022/12/19 05:48:29;;;;;;;78.70;27.90;;;3.60;99.90;;;;;;5032932;28;20053;-76
2022/12/19 05:50:55;;;;;;;88.65;28.98;;;3.70;99.90;;;;;;4999153;28;20061;-76
2022/12/19 05:53:21;;;;;;;94.18;29.83;;;4.10;99.90;;;;;;5032664;28;20487;-77
2022/12/19 05:55:46;;;;;;;82.85;26.65;;;3.90;99.90;;;;;;5015758;28;20064;-76
2022/12/19 05:58:12;;;;;;;92.55;29.52;;;4.10;99.90;;;;;;4999868;28;20042;-77
2022/12/19 06:00:38;;;;;;;87.18;27.27;;;3.70;99.90;;;;;;4999447;28;20054;-76
2022/12/19 06:03:04;;;;;;;100.85;30.05;;;3.70;99.90;;;;;;5016049;28;20045;-76
2022/12/19 06:05:29;;;;;;;101.15;30.27;;;3.70;99.90;;;;;;4999594;28;20119;-76
2022/12/19 06:07:55;;;;;;;99.57;30.60;;;3.80;99.90;;;;;;5015726;28;20041;-77
2022/12/19 06:10:21;;;;;;;83.25;26.85;;;3.90;99.90;;;;;;5015925;28;20050;-75
2022/12/19 06:12:46;;;;;;;95.90;30.20;;;3.70;99.90;;;;;;5031756;28;20041;-76
2022/12/19 06:15:12;;;;;;;92.00;29.10;;;3.70;99.90;;;;;;5015483;28;20128;-76
2022/12/19 06:17:38;;;;;;;91.43;28.67;;;3.80;99.90;;;;;;4999421;28;20041;-75
2022/12/19 06:20:04;;;;;;;88.43;28.08;;;3.90;99.90;;;;;;5031847;28;20065;-75
2022/12/19 06:22:30;;;;;;;83.85;28.92;;;3.80;99.90;;;;;;4999251;28;20091;-76
2022/12/19 06:24:56;;;;;;;89.32;29.50;;;3.90;99.90;;;;;;5031612;28;20435;-76
2022/12/19 06:27:21;;;;;;;82.75;29.15;;;4.30;99.90;;;;;;4999364;28;20049;-76
2022/12/19 06:29:47;;;;;;;75.78;26.35;;;4.60;99.90;;;;;;5031783;28;20575;-75
2022/12/19 06:32:13;;;;;;;80.82;28.60;;;4.10;99.90;;;;;;5015374;28;20045;-76
2022/12/19 06:34:38;;;;;;;86.70;28.73;;;4.60;99.90;;;;;;5032022;28;20289;-76
2022/12/19 06:37:04;;;;;;;89.53;27.75;;;4.00;99.90;;;;;;5031571;28;20052;-75
2022/12/19 06:39:30;;;;;;;76.28;28.17;;;4.50;99.90;;;;;;4999354;28;20045;-75
2022/12/19 06:44:39;;;;;;;85.68;27.92;;;4.10;99.90;;;;;;5031818;28;20499;-75
2022/12/19 06:47:05;;;;;;;75.93;25.17;;;4.40;99.90;;;;;;5035530;28;20080;-76
2022/12/19 06:49:30;;;;;;;85.25;28.98;;;4.20;99.90;;;;;;5019224;28;20049;-76
2022/12/19 06:51:56;;;;;;;82.05;26.33;;;5.10;99.90;;;;;;4986131;28;20045;-76
2022/12/19 06:54:22;;;;;;;78.45;24.83;;;4.20;99.90;;;;;;4986913;28;20042;-76
2022/12/19 06:56:48;;;;;;;76.75;26.23;;;4.30;99.90;;;;;;5019056;28;20056;-76
2022/12/19 06:59:15;;;;;;;85.80;28.08;;;5.20;99.90;;;;;;5019298;28;20045;-76
2022/12/19 07:01:44;;;;;;;87.60;28.67;;;4.40;99.90;;;;;;5019097;28;20495;-75
2022/12/19 07:04:12;;;;;;;84.80;26.55;;;4.40;99.90;;;;;;5018906;28;20135;-76
2022/12/19 07:06:38;;;;;;;84.78;27.38;;;4.40;99.90;;;;;;5002874;28;20059;-75
2022/12/19 07:09:05;;;;;;;85.63;26.60;;;4.50;99.90;;;;;;5002574;28;20483;-76
2022/12/19 07:11:31;;;;;;;80.85;28.92;;;4.50;99.90;;;;;;5018979;28;20048;-76
2022/12/19 07:13:56;;;;;;;83.75;28.20;;;5.20;99.90;;;;;;5018872;28;20041;-75
2022/12/19 07:16:24;;;;;;;94.85;27.65;;;4.60;99.90;;;;;;5002695;28;20053;-76
2022/12/19 07:18:50;;;;;;;81.45;26.30;;;4.50;99.90;;;;;;5018891;28;20085;-75
2022/12/19 07:21:15;;;;;;;76.88;26.75;;;4.60;99.90;;;;;;5018963;28;20081;-76
2022/12/19 07:23:42;;;;;;;78.15;27.63;;;4.60;99.90;;;;;;4986401;28;20124;-77
2022/12/19 07:26:08;;;;;;;83.88;28.20;;;4.60;99.90;;;;;;5018861;28;20099;-76
2022/12/19 07:28:36;;;;;;;90.15;28.92;;;4.60;99.90;;;;;;5018809;28;20037;-76
2022/12/19 07:31:02;;;;;;;85.07;26.30;;;4.70;99.90;;;;;;5018383;28;20041;-77
2022/12/19 07:33:28;;;;;;;74.50;27.77;;;4.60;99.90;;;;;;5018824;28;20046;-76
2022/12/19 07:35:53;;;;;;;89.05;29.05;;;4.60;99.90;;;;;;4985932;28;20053;-75
2022/12/19 07:38:21;;;;;;;81.18;25.30;;;4.80;99.90;;;;;;5018653;28;20537;-76
2022/12/19 07:40:47;;;;;;;77.13;25.08;;;4.90;99.90;;;;;;5002210;28;20049;-76
2022/12/19 07:43:12;;;;;;;69.30;25.23;;;5.10;99.90;;;;;;4985939;28;20059;-76
2022/12/19 07:45:38;;;;;;;74.40;24.40;;;4.70;99.90;;;;;;5002239;28;20045;-77
2022/12/19 07:48:06;;;;;;;63.75;20.20;;;4.80;99.90;;;;;;5001771;28;20128;-76
2022/12/19 07:50:32;;;;;;;65.38;23.90;;;4.90;99.90;;;;;;5007618;28;20060;-76
2022/12/19 07:52:58;;;;;;;63.78;23.80;;;5.10;99.90;;;;;;5034123;28;20448;-76
2022/12/19 07:55:25;;;;;;;60.80;21.90;;;5.10;99.90;;;;;;5018155;28;20050;-76
2022/12/19 07:57:51;;;;;;;69.18;24.20;;;5.20;99.90;;;;;;5033964;28;20045;-77
2022/12/19 08:00:17;;;;;;;57.70;21.02;;;6.10;99.90;;;;;;5000842;28;20048;-77
2022/12/19 08:02:42;;;;;;;63.05;20.85;;;5.40;99.90;;;;;;5001312;28;20038;-76
2022/12/19 08:05:10;;;;;;;62.35;22.45;;;6.10;99.90;;;;;;5017247;28;20078;-77
2022/12/19 08:07:35;;;;;;;52.60;18.48;;;5.50;99.90;;;;;;5033739;28;20065;-77
2022/12/19 08:10:01;;;;;;;54.65;21.27;;;5.80;99.90;;;;;;5017012;28;20053;-76
2022/12/19 08:12:27;;;;;;;69.57;22.63;;;5.40;99.90;;;;;;5033529;28;20455;-77
2022/12/19 08:14:53;;;;;;;59.22;20.75;;;5.80;99.90;;;;;;5017274;28;20045;-77
2022/12/19 08:17:18;;;;;;;61.97;23.00;;;5.40;99.90;;;;;;5016708;28;20048;-77
2022/12/19 08:19:44;;;;;;;45.72;17.52;;;5.80;99.90;;;;;;5016936;28;20052;-77
2022/12/19 08:22:10;;;;;;;52.53;19.73;;;5.40;99.90;;;;;;4984097;28;20103;-77
2022/12/19 08:24:35;;;;;;;52.38;19.08;;;5.50;99.90;;;;;;5034050;28;20052;-78
2022/12/19 08:27:01;;;;;;;59.10;21.73;;;5.60;99.90;;;;;;5017484;28;20077;-77
2022/12/19 08:29:27;;;;;;;54.83;20.80;;;5.50;99.90;;;;;;5018011;28;20049;-77
2022/12/19 08:31:53;;;;;;;59.60;19.95;;;5.70;99.90;;;;;;5017268;28;20041;-77
2022/12/19 08:34:20;;;;;;;55.63;20.60;;;6.00;99.90;;;;;;5000970;28;20156;-78
2022/12/19 08:36:45;;;;;;;47.03;18.67;;;5.60;99.90;;;;;;5033987;28;20045;-78
2022/12/19 08:39:11;;;;;;;51.00;18.13;;;5.80;99.90;;;;;;5016809;28;20065;-78
2022/12/19 08:41:37;;;;;;;58.95;20.23;;;5.60;99.90;;;;;;5033903;28;20049;-78
2022/12/19 08:44:02;;;;;;;54.60;20.48;;;5.70;99.90;;;;;;5017092;28;20055;-77
2022/12/19 08:46:28;;;;;;;32.75;14.18;;;5.60;99.90;;;;;;5033918;28;20048;-77
2022/12/19 08:48:54;;;;;;;47.67;19.08;;;5.90;99.90;;;;;;5017393;28;20048;-76
2022/12/19 08:51:20;;;;;;;47.42;19.17;;;5.80;99.90;;;;;;5032959;28;20144;-76
2022/12/19 08:53:46;;;;;;;45.60;17.08;;;5.70;99.90;;;;;;5017135;28;20060;-75
2022/12/19 08:56:20;;;;;;;43.90;17.13;;;6.00;99.90;;;;;;5033284;28;20048;-76
2022/12/19 08:58:46;;;;;;;49.97;18.30;;;5.80;99.90;;;;;;5033758;28;20056;-76
2022/12/19 09:01:17;;;;;;;46.45;19.00;;;6.40;99.90;;;;;;5016878;28;20504;-76
2022/12/19 09:03:43;;;;;;;53.10;18.92;;;6.20;99.90;;;;;;5033424;28;20045;-76
2022/12/19 09:06:11;;;;;;;44.35;16.75;;;6.10;99.90;;;;;;5016826;28;20057;-76
2022/12/19 09:08:38;;;;;;;40.22;15.43;;;6.20;99.90;;;;;;5032744;28;20131;-76
2022/12/19 09:11:06;;;;;;;32.25;12.68;;;6.20;99.90;;;;;;5016504;28;20530;-76
2022/12/19 09:13:34;;;;;;;41.55;17.42;;;6.20;99.90;;;;;;5016720;28;20053;-76
2022/12/19 09:16:18;;;;;;;44.13;15.00;;;6.10;99.90;;;;;;5016651;28;20057;-76
2022/12/19 09:18:45;;;;;;;34.70;14.68;;;6.10;99.90;;;;;;5032957;28;20458;-76
2022/12/19 09:21:12;;;;;;;43.28;16.10;;;6.20;99.90;;;;;;5033030;28;20057;-76
2022/12/19 09:23:39;;;;;;;42.92;16.95;;;6.10;99.90;;;;;;5016745;28;20095;-76
2022/12/19 09:26:08;;;;;;;36.97;15.45;;;6.30;99.90;;;;;;5032914;28;20555;-76
2022/12/19 09:28:35;;;;;;;36.42;14.95;;;6.20;99.90;;;;;;5016515;28;20053;-76
2022/12/19 09:31:04;;;;;;;38.15;15.95;;;6.50;99.90;;;;;;5000116;28;20056;-76
2022/12/19 09:33:32;;;;;;;38.58;15.85;;;6.30;99.90;;;;;;5016124;28;20501;-77
2022/12/19 09:35:58;;;;;;;31.23;14.30;;;6.60;99.90;;;;;;5016266;28;20100;-77
2022/12/19 09:38:25;;;;;;;40.40;16.05;;;6.30;99.90;;;;;;5016036;28;20049;-75
2022/12/19 09:40:57;;;;;;;36.83;14.75;;;6.40;99.90;;;;;;5000155;28;20487;-77
2022/12/19 09:43:43;;;;;;;35.95;16.23;;;6.50;99.90;;;;;;5015980;28;20045;-76
2022/12/19 09:46:17;;;;;;;44.25;17.02;;;6.70;99.90;;;;;;5031673;28;20456;-76
2022/12/19 09:48:52;;;;;;;41.95;17.20;;;6.80;99.90;;;;;;5032296;28;20420;-76
2022/12/19 09:51:43;;;;;;;38.00;16.42;;;6.70;99.90;;;;;;5031655;28;20496;-76
2022/12/19 09:54:17;;;;;;;46.58;17.95;;;6.70;99.90;;;;;;5015883;28;20092;-76
2022/12/19 09:56:44;;;;;;;46.17;18.85;;;6.80;99.90;;;;;;5031967;28;20495;-76
2022/12/19 09:59:28;;;;;;;49.22;18.50;;;6.80;99.90;;;;;;5015611;28;20062;-77
2022/12/19 10:02:03;;;;;;;44.22;18.23;;;6.60;99.90;;;;;;5032336;28;20049;-77
2022/12/19 10:04:33;;;;;;;40.50;18.23;;;6.80;99.90;;;;;;5032110;28;20369;-76
2022/12/19 10:06:58;;;;;;;45.63;18.75;;;6.80;99.90;;;;;;5032132;28;20495;-77
2022/12/19 10:09:32;;;;;;;46.60;18.95;;;7.20;99.90;;;;;;5015433;28;20111;-76
2022/12/19 10:12:24;;;;;;;45.80;19.17;;;6.70;99.90;;;;;;5031953;28;20107;-76
2022/12/19 10:15:14;;;;;;;47.17;20.40;;;6.90;99.90;;;;;;5027189;28;20446;-76
2022/12/19 10:17:51;;;;;;;55.00;21.10;;;7.10;99.90;;;;;;5015631;28;20491;-76
2022/12/19 10:20:25;;;;;;;46.42;19.27;;;7.10;99.90;;;;;;5015171;28;20049;-76
2022/12/19 10:23:35;;;;;;;47.67;19.33;;;6.90;99.90;;;;;;5032214;28;20077;-76
2022/12/19 10:26:09;;;;;;;44.28;17.27;;;7.10;99.90;;;;;;4978389;28;20108;-76
2022/12/19 10:28:50;;;;;;;44.63;19.52;;;7.00;99.90;;;;;;5016027;28;20844;-77
2022/12/19 10:31:34;;;;;;;47.00;20.15;;;7.10;99.90;;;;;;5016207;28;20044;-77
2022/12/19 10:34:23;;;;;;;41.50;18.27;;;7.20;99.90;;;;;;5032321;28;20057;-77
2022/12/19 10:36:53;;;;;;;36.40;17.15;;;7.10;99.90;;;;;;5016079;28;20471;-77
2022/12/19 10:39:30;;;;;;;43.13;19.60;;;7.10;99.90;;;;;;5032043;28;20045;-77
2022/12/19 10:42:08;;;;;;;43.70;18.45;;;7.40;99.90;;;;;;5015897;28;20076;-77
2022/12/19 10:44:38;;;;;;;26.92;12.32;;;7.20;99.90;;;;;;5015709;28;20472;-77
2022/12/19 10:47:03;;;;;;;35.38;16.58;;;7.50;99.90;;;;;;5032386;28;20045;-77
2022/12/19 10:49:29;;;;;;;39.47;18.88;;;7.30;99.90;;;;;;5015687;28;20414;-77
2022/12/19 10:51:59;;;;;;;30.30;13.38;;;7.30;99.90;;;;;;5015419;28;20474;-76
2022/12/19 10:54:36;;;;;;;38.20;16.95;;;7.40;99.90;;;;;;5031996;28;20376;-77
2022/12/19 10:57:27;;;;;;;25.20;12.73;;;7.60;99.90;;;;;;5015891;28;20128;-77
2022/12/19 10:59:58;;;;;;;31.52;15.32;;;7.40;99.90;;;;;;5032137;28;20060;-77
2022/12/19 11:02:37;;;;;;;36.40;17.40;;;7.60;99.90;;;;;;5015607;28;20049;-76
2022/12/19 11:05:19;;;;;;;36.50;16.25;;;7.40;99.90;;;;;;5031885;28;20292;-77
2022/12/19 11:08:19;;;;;;;37.50;16.85;;;7.70;99.90;;;;;;5031692;28;20057;-77
2022/12/19 11:11:10;;;;;;;32.05;16.27;;;7.60;99.90;;;;;;5031450;28;20060;-77
2022/12/19 11:13:41;;;;;;;30.63;15.38;;;7.70;99.90;;;;;;5003276;28;20061;-76
2022/12/19 11:16:07;;;;;;;;;;;7.60;99.90;;;;;;5015626;28;20061;-76
2022/12/19 11:18:34;;;;;;;31.90;15.85;;;7.70;99.90;;;;;;5031448;28;19947;-76
2022/12/19 11:21:04;;;;;;;30.38;14.55;;;7.80;99.90;;;;;;5031268;28;20049;-76
2022/12/19 11:23:31;;;;;;;34.72;16.15;;;7.80;99.90;;;;;;5031306;28;20057;-76
2022/12/19 11:26:02;;;;;;;34.15;16.90;;;7.80;99.90;;;;;;5031429;28;20084;-76
2022/12/19 11:28:36;;;;;;;25.30;11.57;;;7.70;99.90;;;;;;5031289;28;20037;-76
2022/12/19 11:31:04;;;;;;;26.20;14.30;;;7.80;99.90;;;;;;5031723;28;20053;-76
2022/12/19 11:33:31;;;;;;;26.08;13.57;;;7.70;99.90;;;;;;5035053;28;20132;-76
2022/12/19 11:35:58;;;;;;;28.27;14.80;;;7.90;99.90;;;;;;5035085;28;20369;-77
2022/12/19 11:38:52;;;;;;;31.55;15.20;;;7.90;99.90;;;;;;5018124;28;20041;-76
2022/12/19 11:41:27;;;;;;;30.35;15.20;;;7.80;99.90;;;;;;5035101;28;20439;-77
2022/12/19 11:44:04;;;;;;;26.70;14.77;;;7.90;99.90;;;;;;5034970;28;20046;-76
2022/12/19 11:46:50;;;;;;;29.38;13.65;;;7.80;99.90;;;;;;5034641;28;20160;-76
2022/12/19 11:49:27;;;;;;;20.02;10.70;;;7.80;99.90;;;;;;5034937;28;20064;-76
2022/12/19 11:52:19;;;;;;;28.05;13.80;;;7.90;99.90;;;;;;5033397;28;20049;-77
2022/12/19 11:54:45;;;;;;;27.58;14.15;;;8.00;99.90;;;;;;5016865;28;20042;-76
2022/12/19 11:57:12;;;;;;;26.77;13.20;;;8.00;99.90;;;;;;5033448;28;20103;-76
2022/12/19 11:59:39;;;;;;;26.05;13.30;;;7.80;99.90;;;;;;5000542;28;20128;-75
2022/12/19 12:02:28;;;;;;;23.08;12.65;;;7.90;99.90;;;;;;5033452;28;20045;-76
2022/12/19 12:05:18;;;;;;;20.58;11.57;;;8.10;99.90;;;;;;5033202;28;20050;-76
2022/12/19 12:07:50;;;;;;;21.85;11.90;;;8.10;99.90;;;;;;5033349;28;20132;-76
2022/12/19 12:10:20;;;;;;;27.75;15.05;;;8.10;99.90;;;;;;5033336;28;20136;-76
2022/12/19 12:13:22;;;;;;;25.02;12.82;;;8.10;99.90;;;;;;5032832;28;20088;-76
2022/12/19 12:15:57;;;;;;;21.60;11.35;;;8.20;99.90;;;;;;5027400;28;20054;-76
2022/12/19 12:18:56;;;;;;;24.48;12.93;;;8.00;99.90;;;;;;5032917;28;20095;-76
2022/12/19 12:21:26;;;;;;;25.17;14.35;;;8.30;99.90;;;;;;5016085;28;20062;-76
2022/12/19 12:24:05;;;;;;;20.42;10.45;;;8.20;99.90;;;;;;5031431;28;20839;-75
2022/12/19 12:26:44;;;;;;;24.70;12.63;;;8.20;99.90;;;;;;4686848;28;9999756;-76
2022/12/19 12:29:19;;;;;;;22.13;12.70;;;8.30;99.90;;;;;;5050934;28;20594;-77
2022/12/19 12:32:20;;;;;;;26.58;13.95;;;8.30;99.90;;;;;;5050361;28;20040;-76
2022/12/19 12:34:54;;;;;;;21.57;12.73;;;8.30;99.90;;;;;;4967239;28;20819;-77
2022/12/19 12:37:23;;;;;;;22.13;11.73;;;8.10;99.90;;;;;;5050152;28;20047;-76
2022/12/19 12:40:08;;;;;;;24.90;13.80;;;8.20;99.90;;;;;;5050412;28;20049;-76
2022/12/19 12:42:52;;;;;;;26.30;13.73;;;8.30;99.90;;;;;;5033011;28;20095;-77
2022/12/19 12:45:27;;;;;;;19.48;10.63;;;8.30;99.90;;;;;;5033801;28;20785;-77
2022/12/19 12:47:53;;;;;;;24.23;12.65;;;8.30;99.90;;;;;;5049748;28;20130;-77
2022/12/19 12:50:23;;;;;;;25.50;14.45;;;8.20;99.90;;;;;;4994284;28;1133366;-77
2022/12/19 12:52:53;;;;;;;23.58;11.50;;;8.30;99.90;;;;;;5034376;28;20045;-76
2022/12/19 12:55:31;;;;;;;25.23;12.90;;;8.20;99.90;;;;;;5051394;28;20099;-77
2022/12/19 12:57:57;;;;;;;26.15;14.95;;;8.20;99.90;;;;;;5050999;28;20044;-76
2022/12/19 13:00:28;;;;;;;20.05;10.43;;;8.30;99.90;;;;;;5034100;28;20049;-77
2022/12/19 13:03:11;;;;;;;24.95;14.50;;;8.30;99.90;;;;;;5034470;28;20048;-77